createdAt,value
2023-04-17T00:06:18.966Z,10.40
2023-04-17T00:13:19.269Z,10.40
2023-04-17T00:20:19.748Z,10.30
2023-04-17T00:27:20.303Z,10.30
2023-04-17T00:34:20.902Z,10.30
2023-04-17T00:41:21.369Z,10.30
2023-04-17T00:48:24.059Z,10.30
2023-04-17T00:55:24.427Z,10.30
2023-04-17T01:02:25.493Z,10.30
2023-04-17T01:09:26.154Z,10.30
2023-04-17T01:16:27.496Z,10.20
2023-04-17T01:23:29.723Z,10.20
2023-04-17T01:30:29.842Z,10.20
2023-04-17T01:37:35.419Z,10.20
2023-04-17T01:44:37.400Z,10.20
2023-04-17T01:51:37.852Z,10.20
2023-04-17T01:58:38.143Z,10.10
2023-04-17T02:05:38.530Z,10.10
2023-04-17T02:12:39.048Z,10.10
2023-04-17T02:19:39.393Z,10.10
2023-04-17T02:26:40.620Z,10.00
2023-04-17T02:33:40.890Z,10.00
2023-04-17T02:40:42.843Z,10.00
2023-04-17T02:47:43.912Z,10.00
2023-04-17T02:54:44.761Z,10.10
2023-04-17T03:01:46.371Z,10.00
2023-04-17T03:08:49.597Z,10.00
2023-04-17T03:15:50.158Z,10.00
2023-04-17T03:22:50.979Z,9.90
2023-04-17T03:29:52.095Z,9.90
2023-04-17T03:36:53.160Z,9.90
2023-04-17T03:43:53.883Z,9.90
2023-04-17T03:50:54.416Z,9.90
2023-04-17T03:57:56.376Z,9.90
2023-04-17T04:04:58.961Z,9.90
2023-04-17T04:11:59.254Z,9.90
2023-04-17T04:19:01.228Z,9.90
2023-04-17T04:26:01.870Z,9.90
2023-04-17T04:33:11.122Z,9.90
2023-04-17T04:40:16.305Z,9.80
2023-04-17T04:47:17.117Z,9.80
2023-04-17T04:54:17.829Z,9.80
2023-04-17T05:01:27.876Z,9.80
2023-04-17T05:08:29.286Z,9.70
2023-04-17T05:15:42.928Z,9.70
2023-04-17T05:22:44.270Z,9.70
2023-04-17T05:29:46.581Z,9.70
2023-04-17T05:36:47.301Z,9.70
2023-04-17T05:43:47.876Z,9.70
2023-04-17T05:50:48.392Z,9.80
2023-04-17T05:57:48.716Z,9.80
2023-04-17T06:04:49.387Z,9.70
2023-04-17T06:11:51.119Z,9.70
2023-04-17T06:18:51.897Z,9.70
2023-04-17T06:25:52.794Z,9.70
2023-04-17T06:32:53.063Z,9.80
2023-04-17T06:39:54.064Z,9.80
2023-04-17T06:46:54.806Z,9.90
2023-04-17T06:53:55.210Z,10.00
2023-04-17T07:00:55.293Z,10.10
2023-04-17T07:07:55.833Z,10.10
2023-04-17T07:14:56.216Z,10.20
2023-04-17T07:21:56.953Z,10.20
2023-04-17T07:28:57.103Z,10.30
2023-04-17T07:35:57.768Z,10.30
2023-04-17T07:42:58.204Z,10.40
2023-04-17T07:49:58.613Z,10.50
2023-04-17T07:57:03.422Z,10.50
2023-04-17T08:04:03.745Z,10.60
2023-04-17T08:11:04.696Z,10.70
2023-04-17T08:18:05.447Z,10.80
2023-04-17T08:25:09.186Z,11.00
2023-04-17T08:32:14.634Z,11.10
2023-04-17T08:39:16.552Z,11.30
2023-04-17T08:46:18.937Z,11.50
2023-04-17T08:53:20.515Z,11.70
2023-04-17T09:00:28.914Z,11.80
2023-04-17T09:07:32.281Z,11.90
2023-04-17T09:14:32.455Z,11.90
2023-04-17T09:21:32.765Z,11.80
2023-04-17T09:28:35.405Z,11.80
2023-04-17T09:35:40.513Z,12.00
2023-04-17T09:43:13.517Z,12.20
2023-04-17T09:50:17.715Z,12.60
2023-04-17T09:57:18.687Z,12.80
2023-04-17T10:04:19.682Z,13.00
2023-04-17T10:11:23.675Z,13.40
2023-04-17T10:18:25.086Z,13.80
2023-04-17T10:25:29.593Z,14.00
2023-04-17T10:32:31.788Z,14.10
2023-04-17T10:40:10.715Z,14.30
2023-04-17T10:47:14.017Z,14.50
2023-04-17T10:54:15.643Z,14.60
2023-04-17T11:01:16.421Z,14.80
2023-04-17T11:08:16.695Z,14.90
2023-04-17T11:15:17.178Z,14.80
2023-04-17T11:22:19.229Z,14.90
2023-04-17T11:29:21.936Z,15.10
2023-04-17T11:36:22.520Z,15.30
2023-04-17T11:43:23.670Z,15.50
2023-04-17T11:50:28.640Z,15.60
2023-04-17T11:57:28.890Z,15.90
2023-04-17T12:04:30.850Z,16.10
2023-04-17T12:11:33.055Z,16.00
2023-04-17T12:18:33.523Z,15.90
2023-04-17T12:25:34.243Z,16.10
2023-04-17T12:32:35.272Z,16.30
2023-04-17T12:39:35.415Z,16.40
2023-04-17T12:46:36.244Z,16.60
2023-04-17T12:53:36.488Z,16.50
2023-04-17T13:00:38.040Z,16.90
2023-04-17T13:07:38.370Z,17.30
2023-04-17T13:14:42.331Z,17.50
2023-04-17T13:21:42.907Z,17.60
2023-04-17T13:28:43.326Z,17.90
2023-04-17T13:35:43.823Z,18.20
2023-04-17T13:42:44.167Z,18.20
2023-04-17T13:49:44.474Z,18.70
2023-04-17T13:56:45.817Z,19.00
2023-04-17T14:03:46.622Z,19.20
2023-04-17T14:10:47.226Z,18.80
2023-04-17T14:17:47.834Z,18.30
2023-04-17T14:24:49.208Z,18.00
2023-04-17T14:31:49.961Z,17.70
2023-04-17T14:38:52.582Z,17.50
2023-04-17T14:45:52.949Z,17.30
2023-04-17T14:52:55.535Z,17.00
2023-04-17T14:59:55.879Z,17.10
2023-04-17T15:06:56.294Z,17.10
2023-04-17T15:13:56.622Z,16.80
2023-04-17T15:20:56.970Z,16.80
2023-04-17T15:27:57.322Z,17.20
2023-04-17T15:34:57.717Z,17.20
2023-04-17T15:41:59.074Z,17.00
2023-04-17T15:49:08.405Z,17.10
2023-04-17T15:56:21.548Z,17.50
2023-04-17T16:03:22.280Z,17.40
2023-04-17T16:10:22.976Z,17.00
2023-04-17T16:17:23.566Z,16.40
2023-04-17T16:24:25.498Z,16.10
2023-04-17T16:31:26.050Z,16.30
2023-04-17T16:38:27.558Z,16.20
2023-04-17T16:45:27.834Z,15.90
2023-04-17T16:52:28.512Z,16.10
2023-04-17T16:59:28.943Z,16.40
2023-04-17T17:06:29.681Z,16.50
2023-04-17T17:13:30.922Z,16.60
2023-04-17T17:20:31.730Z,16.50
2023-04-17T17:27:32.478Z,16.20
2023-04-17T17:34:32.929Z,16.10
2023-04-17T17:41:33.312Z,15.90
2023-04-17T17:48:34.469Z,15.80
2023-04-17T17:55:38.060Z,15.50
2023-04-17T18:02:38.615Z,15.40
2023-04-17T18:09:38.780Z,15.20
2023-04-17T18:16:39.100Z,15.10
2023-04-17T18:23:39.518Z,15.00
2023-04-17T18:30:39.831Z,14.80
2023-04-17T18:37:43.122Z,14.60
2023-04-17T18:44:43.180Z,14.40
2023-04-17T18:51:50.095Z,14.20
2023-04-17T18:58:51.066Z,14.00
2023-04-17T19:05:51.221Z,13.80
2023-04-17T19:12:51.522Z,13.70
2023-04-17T19:19:51.888Z,13.40
2023-04-17T19:26:52.300Z,13.20
2023-04-17T19:33:55.969Z,13.00
2023-04-17T19:41:17.761Z,12.80
2023-04-17T19:48:18.037Z,12.60
2023-04-17T19:55:18.637Z,12.50
2023-04-17T20:02:21.456Z,12.40
2023-04-17T20:09:21.881Z,12.30
2023-04-17T20:16:23.852Z,12.10
2023-04-17T20:23:24.146Z,11.80
2023-04-17T20:30:24.625Z,11.60
2023-04-17T20:37:25.189Z,11.30
2023-04-17T20:44:25.742Z,11.10
2023-04-17T20:51:27.261Z,10.90
2023-04-17T20:58:27.636Z,10.80
2023-04-17T21:05:28.289Z,10.60
2023-04-17T21:12:28.660Z,10.30
2023-04-17T21:19:30.608Z,10.10
2023-04-17T21:26:30.981Z,9.90
2023-04-17T21:33:31.200Z,9.80
2023-04-17T21:40:33.606Z,9.70
2023-04-17T21:47:34.267Z,9.60
2023-04-17T21:54:34.661Z,9.50
2023-04-17T22:01:35.180Z,9.50
2023-04-17T22:08:35.762Z,9.20
2023-04-17T22:15:36.226Z,9.10
2023-04-17T22:22:36.553Z,9.00
2023-04-17T22:29:37.150Z,9.00
2023-04-17T22:36:37.817Z,9.00
2023-04-17T22:43:38.215Z,8.90
2023-04-17T22:50:39.179Z,8.90
2023-04-17T22:57:39.549Z,9.00
2023-04-17T23:04:40.819Z,9.00
2023-04-17T23:11:41.428Z,9.00
2023-04-17T23:18:41.560Z,9.00
2023-04-17T23:25:42.228Z,9.00
2023-04-17T23:32:43.172Z,8.90
2023-04-17T23:39:43.696Z,8.90
2023-04-17T23:46:56.575Z,8.80
2023-04-17T23:53:58.866Z,8.80
